Time;durP1;ratioP1;P1;durP2;ratioP2;P2;SDS_P1;SDS_P2;PMS_P1;PMS_P2;Temp;Humidity;BMP_temperature;BMP_pressure;BME280_temperature;BME280_humidity;BME280_pressure;Samples;Min_cycle;Max_cycle;Signal;HPM_P1;HPM_P2
2022/07/14 00:38:31;;;;;;;16.33;10.05;;;;;;;;;;4887903;29;20051;-75
2022/07/14 00:40:58;;;;;;;11.77;9.63;;;;;;;;;;4837811;29;20586;-73
2022/07/14 00:43:24;;;;;;;15.00;10.45;;;;;;;;;;4857373;29;20136;-74
2022/07/14 00:45:50;;;;;;;14.73;11.00;;;;;;;;;;4858068;29;20189;-76
2022/07/14 00:48:19;;;;;;;17.40;11.30;;;;;;;;;;4844395;29;20060;-72
2022/07/14 00:50:45;;;;;;;20.00;11.40;;;;;;;;;;4844562;29;20338;-74
2022/07/14 00:53:11;;;;;;;17.35;12.80;;;;;;;;;;4860977;29;20137;-74
2022/07/14 00:55:39;;;;;;;15.50;12.40;;;;;;;;;;4844371;29;20045;-74
2022/07/14 00:58:05;;;;;;;15.90;12.38;;;;;;;;;;4860767;29;20049;-75
2022/07/14 01:00:31;;;;;;;13.65;12.40;;;;;;;;;;4860920;29;20533;-75
2022/07/14 01:02:56;;;;;;;18.02;13.10;;;;;;;;;;4860473;29;20132;-74
2022/07/14 01:05:22;;;;;;;19.88;13.48;;;;;;;;;;4860562;29;20042;-74
2022/07/14 01:07:48;;;;;;;20.83;14.63;;;;;;;;;;4860566;29;20415;-74
2022/07/14 01:10:15;;;;;;;18.45;12.57;;;;;;;;;;4843714;29;20053;-74
2022/07/14 01:12:46;;;;;;;15.63;13.07;;;;;;;;;;4859600;29;20049;-75
2022/07/14 01:15:18;;;;;;;17.48;10.60;;;;;;;;;;4860522;29;20038;-73
2022/07/14 01:17:47;;;;;;;17.13;11.63;;;;;;;;;;4860527;29;20426;-73
2022/07/14 01:20:16;;;;;;;12.40;11.18;;;;;;;;;;4859256;29;20060;-73
2022/07/14 01:22:42;;;;;;;15.15;12.30;;;;;;;;;;4828825;29;20125;-72
2022/07/14 01:25:08;;;;;;;21.13;13.20;;;;;;;;;;4844334;29;20190;-74
2022/07/14 01:27:34;;;;;;;16.55;12.48;;;;;;;;;;4845309;29;20044;-75
2022/07/14 01:30:00;;;;;;;14.07;12.27;;;;;;;;;;4861928;29;20049;-74
2022/07/14 01:32:26;;;;;;;18.05;12.13;;;;;;;;;;4861196;29;20136;-74
2022/07/14 01:34:52;;;;;;;20.08;12.98;;;;;;;;;;4843795;29;20053;-74
2022/07/14 01:37:18;;;;;;;17.58;11.55;;;;;;;;;;4861944;29;20429;-75
2022/07/14 01:39:44;;;;;;;19.05;11.73;;;;;;;;;;4861931;29;20136;-75
2022/07/14 01:42:11;;;;;;;15.75;10.68;;;;;;;;;;4878483;29;20136;-75
2022/07/14 01:44:37;;;;;;;15.23;11.82;;;;;;;;;;4862112;29;20072;-75
2022/07/14 01:47:04;;;;;;;21.33;12.43;;;;;;;;;;4878784;29;20056;-74
2022/07/14 01:49:29;;;;;;;17.83;11.43;;;;;;;;;;4868186;29;20037;-74
2022/07/14 01:51:58;;;;;;;14.20;11.70;;;;;;;;;;4866531;29;20136;-72
2022/07/14 01:54:26;;;;;;;14.40;11.48;;;;;;;;;;4847034;29;20052;-75
2022/07/14 01:56:52;;;;;;;18.83;11.63;;;;;;;;;;4861605;29;20076;-73
2022/07/14 01:59:18;;;;;;;16.20;11.90;;;;;;;;;;4861793;29;20049;-74
2022/07/14 02:01:44;;;;;;;15.88;11.35;;;;;;;;;;4831044;29;20520;-75
2022/07/14 02:04:13;;;;;;;17.08;11.48;;;;;;;;;;4845817;29;20578;-74
2022/07/14 02:06:42;;;;;;;20.40;12.15;;;;;;;;;;4861880;29;20048;-73
2022/07/14 02:09:12;;;;;;;21.40;12.18;;;;;;;;;;4845981;29;20512;-74
2022/07/14 02:14:23;;;;;;;13.45;11.68;;;;;;;;;;4861466;29;20049;-75
2022/07/14 02:16:50;;;;;;;14.80;11.65;;;;;;;;;;4878167;29;20118;-73
2022/07/14 02:19:16;;;;;;;23.92;11.75;;;;;;;;;;4845973;29;20045;-72
2022/07/14 02:21:42;;;;;;;17.63;10.88;;;;;;;;;;4861235;29;20041;-74
2022/07/14 02:24:08;;;;;;;19.50;11.68;;;;;;;;;;4845622;29;20053;-75
2022/07/14 02:26:34;;;;;;;12.65;11.13;;;;;;;;;;4861211;29;20549;-73
2022/07/14 02:29:00;;;;;;;24.15;13.95;;;;;;;;;;4830475;29;20545;-73
2022/07/14 02:31:26;;;;;;;22.25;19.77;;;;;;;;;;4845760;29;20144;-73
2022/07/14 02:33:52;;;;;;;15.07;12.18;;;;;;;;;;4860751;29;20120;-73
2022/07/14 02:36:19;;;;;;;17.38;9.85;;;;;;;;;;4861041;29;20117;-73
2022/07/14 02:38:45;;;;;;;14.02;9.52;;;;;;;;;;4860876;29;20045;-73
2022/07/14 02:41:11;;;;;;;13.35;7.85;;;;;;;;;;4877348;29;20052;-73
2022/07/14 02:43:37;;;;;;;9.90;8.20;;;;;;;;;;4877615;29;20052;-74
2022/07/14 02:46:05;;;;;;;11.77;8.43;;;;;;;;;;4860620;29;20053;-74
2022/07/14 02:48:31;;;;;;;13.45;7.57;;;;;;;;;;4877644;29;20052;-74
2022/07/14 02:51:04;;;;;;;16.88;7.65;;;;;;;;;;4876944;29;20072;-74
2022/07/14 02:53:31;;;;;;;15.88;8.18;;;;;;;;;;4845343;29;20041;-73
2022/07/14 02:55:57;;;;;;;12.20;8.43;;;;;;;;;;4860349;29;20518;-73
2022/07/14 02:58:26;;;;;;;14.00;8.32;;;;;;;;;;4845118;29;20037;-73
2022/07/14 03:00:53;;;;;;;10.15;8.10;;;;;;;;;;4860482;29;20591;-74
2022/07/14 03:03:20;;;;;;;14.55;7.82;;;;;;;;;;4860697;29;20532;-74
2022/07/14 03:05:46;;;;;;;11.48;7.88;;;;;;;;;;4860439;29;20056;-74
2022/07/14 03:08:12;;;;;;;8.93;6.70;;;;;;;;;;4859995;29;20041;-74
2022/07/14 03:10:38;;;;;;;12.73;7.18;;;;;;;;;;4844955;29;20057;-74
2022/07/14 03:13:04;;;;;;;9.20;7.00;;;;;;;;;;4876860;29;20067;-75
2022/07/14 03:15:30;;;;;;;12.02;8.25;;;;;;;;;;4860727;29;20573;-74
2022/07/14 03:17:56;;;;;;;9.38;7.65;;;;;;;;;;4860350;29;20123;-73
2022/07/14 03:20:22;;;;;;;17.73;9.38;;;;;;;;;;4860476;29;20430;-74
2022/07/14 03:22:48;;;;;;;31.88;12.20;;;;;;;;;;4860299;29;20051;-74
2022/07/14 03:25:20;;;;;;;29.98;11.02;;;;;;;;;;4860172;29;20049;-74
2022/07/14 03:27:46;;;;;;;35.13;12.70;;;;;;;;;;4876809;29;20073;-74
2022/07/14 03:30:13;;;;;;;27.35;10.52;;;;;;;;;;4859767;29;20517;-73
2022/07/14 03:32:39;;;;;;;18.13;8.88;;;;;;;;;;4860179;29;20125;-73
2022/07/14 03:35:07;;;;;;;20.02;10.30;;;;;;;;;;4859848;29;20049;-74
2022/07/14 03:37:34;;;;;;;16.42;7.68;;;;;;;;;;4859806;29;20399;-74
2022/07/14 03:40:03;;;;;;;16.52;7.20;;;;;;;;;;4844702;29;20091;-75
2022/07/14 03:42:30;;;;;;;14.32;6.45;;;;;;;;;;4860030;29;20521;-75
2022/07/14 03:44:57;;;;;;;12.10;5.78;;;;;;;;;;4860712;29;20127;-73
2022/07/14 03:47:22;;;;;;;7.05;6.10;;;;;;;;;;4860889;29;20136;-75
2022/07/14 03:49:49;;;;;;;8.85;5.80;;;;;;;;;;4859827;29;20109;-74
2022/07/14 03:52:16;;;;;;;11.73;6.30;;;;;;;;;;4859702;29;20056;-74
2022/07/14 03:54:45;;;;;;;9.30;6.00;;;;;;;;;;4844361;29;20045;-74
2022/07/14 03:57:11;;;;;;;14.02;6.38;;;;;;;;;;4859840;29;20041;-73
2022/07/14 03:59:42;;;;;;;13.45;6.65;;;;;;;;;;4859933;29;20068;-74
2022/07/14 04:02:11;;;;;;;9.63;6.80;;;;;;;;;;4860116;29;20440;-74
2022/07/14 04:04:37;;;;;;;18.77;7.15;;;;;;;;;;4876542;29;20139;-74
2022/07/14 04:07:04;;;;;;;12.13;5.97;;;;;;;;;;4862620;29;20113;-74
2022/07/14 04:09:31;;;;;;;11.10;6.20;;;;;;;;;;4862946;29;20041;-75
2022/07/14 04:11:58;;;;;;;9.75;6.72;;;;;;;;;;4862341;29;20143;-75
2022/07/14 04:14:24;;;;;;;19.65;6.90;;;;;;;;;;4859718;29;20075;-74
2022/07/14 04:16:51;;;;;;;11.10;6.47;;;;;;;;;;4860151;29;20053;-75
2022/07/14 04:19:18;;;;;;;8.90;6.75;;;;;;;;;;4859246;29;20048;-73
2022/07/14 04:21:45;;;;;;;13.88;6.90;;;;;;;;;;4878424;29;20048;-74
2022/07/14 04:24:11;;;;;;;14.75;7.05;;;;;;;;;;4860913;29;20097;-74
2022/07/14 04:26:40;;;;;;;12.45;7.38;;;;;;;;;;4862285;29;20045;-75
2022/07/14 04:29:07;;;;;;;12.35;7.10;;;;;;;;;;4847388;29;20045;-75
2022/07/14 04:31:33;;;;;;;13.23;7.43;;;;;;;;;;4863267;29;20052;-75
2022/07/14 04:33:59;;;;;;;13.35;7.47;;;;;;;;;;4879687;29;20051;-76
2022/07/14 04:36:26;;;;;;;11.45;6.75;;;;;;;;;;4863235;29;20056;-76
2022/07/14 04:38:52;;;;;;;13.95;7.18;;;;;;;;;;4863155;29;20053;-74
2022/07/14 04:41:20;;;;;;;10.70;7.03;;;;;;;;;;4862642;29;20109;-76
2022/07/14 04:43:46;;;;;;;10.48;7.28;;;;;;;;;;4863223;29;20049;-75
2022/07/14 04:46:12;;;;;;;8.70;7.60;;;;;;;;;;4862635;29;20133;-73
2022/07/14 04:54:26;;;;;;;7.80;6.88;;;;;;;;;;4862541;29;20052;-75
2022/07/14 04:57:14;;;;;;;11.70;7.50;;;;;;;;;;4878474;29;20045;-75
2022/07/14 04:59:43;;;;;;;12.85;8.15;;;;;;;;;;4862571;29;20107;-75
2022/07/14 05:02:09;;;;;;;9.98;8.13;;;;;;;;;;4877920;29;20048;-75
2022/07/14 05:04:36;;;;;;;15.32;8.02;;;;;;;;;;4862523;29;20577;-75
2022/07/14 05:07:04;;;;;;;15.90;8.13;;;;;;;;;;4862526;29;20056;-75
2022/07/14 05:09:33;;;;;;;12.57;8.45;;;;;;;;;;4862591;29;20037;-74
2022/07/14 05:12:00;;;;;;;12.15;7.82;;;;;;;;;;4862491;29;20517;-74
2022/07/14 05:14:26;;;;;;;9.45;7.63;;;;;;;;;;4878861;29;20115;-74
2022/07/14 05:16:52;;;;;;;13.95;7.40;;;;;;;;;;4879226;29;20068;-74
2022/07/14 05:19:19;;;;;;;15.15;7.43;;;;;;;;;;4862157;29;20048;-75
2022/07/14 05:21:46;;;;;;;10.55;7.32;;;;;;;;;;4862392;29;20048;-72
2022/07/14 05:24:12;;;;;;;8.32;6.40;;;;;;;;;;4878814;29;20045;-74
2022/07/14 05:26:38;;;;;;;13.52;6.55;;;;;;;;;;4862313;29;20041;-75
2022/07/14 05:29:05;;;;;;;8.80;6.13;;;;;;;;;;4878715;29;20139;-74
2022/07/14 05:31:31;;;;;;;10.57;6.68;;;;;;;;;;4878349;29;20049;-73
2022/07/14 05:33:57;;;;;;;13.38;6.55;;;;;;;;;;4862321;29;20474;-74
2022/07/14 05:36:24;;;;;;;14.13;6.65;;;;;;;;;;4861996;29;20059;-75
2022/07/14 05:38:50;;;;;;;18.08;7.32;;;;;;;;;;4864086;29;20064;-75
2022/07/14 05:41:17;;;;;;;10.23;6.80;;;;;;;;;;4862222;29;20147;-73
2022/07/14 05:43:43;;;;;;;12.05;6.03;;;;;;;;;;4862187;29;20048;-75
2022/07/14 05:46:09;;;;;;;7.80;6.38;;;;;;;;;;4861889;29;20545;-75
2022/07/14 05:48:39;;;;;;;11.75;6.00;;;;;;;;;;4862087;29;20040;-76
2022/07/14 05:51:07;;;;;;;6.63;5.93;;;;;;;;;;4878227;29;20063;-74
2022/07/14 05:53:33;;;;;;;9.93;6.32;;;;;;;;;;4861805;29;20457;-74
2022/07/14 05:55:59;;;;;;;11.15;5.60;;;;;;;;;;4878579;29;20128;-74
2022/07/14 05:58:25;;;;;;;9.63;6.00;;;;;;;;;;4861712;29;20552;-73
2022/07/14 06:00:51;;;;;;;7.25;5.70;;;;;;;;;;4861778;29;20056;-76
2022/07/14 06:03:18;;;;;;;11.13;4.55;;;;;;;;;;4861200;29;20045;-75
2022/07/14 06:05:45;;;;;;;12.95;4.63;;;;;;;;;;4861591;29;20057;-76
2022/07/14 06:08:11;;;;;;;3.88;3.50;;;;;;;;;;4877419;29;20040;-73
2022/07/14 06:10:37;;;;;;;4.40;3.78;;;;;;;;;;4878876;29;20065;-75
2022/07/14 06:13:04;;;;;;;8.55;4.05;;;;;;;;;;4846042;29;20041;-75
2022/07/14 06:15:30;;;;;;;11.40;4.03;;;;;;;;;;4861440;29;20061;-74
2022/07/14 06:17:56;;;;;;;8.68;4.13;;;;;;;;;;4846070;29;20513;-75
2022/07/14 06:20:23;;;;;;;4.95;4.15;;;;;;;;;;4876655;29;20053;-74
2022/07/14 06:22:50;;;;;;;4.78;3.88;;;;;;;;;;4845949;29;20134;-76
2022/07/14 06:25:16;;;;;;;4.75;4.22;;;;;;;;;;4860757;29;20118;-76
2022/07/14 06:27:43;;;;;;;5.85;3.95;;;;;;;;;;4861302;29;20064;-76
2022/07/14 06:30:10;;;;;;;4.88;4.03;;;;;;;;;;4860936;29;20541;-76
2022/07/14 06:32:39;;;;;;;8.07;4.70;;;;;;;;;;4846405;29;20036;-77
2022/07/14 06:35:06;;;;;;;9.27;4.45;;;;;;;;;;4860737;29;20044;-77
2022/07/14 06:37:34;;;;;;;9.25;3.97;;;;;;;;;;4877774;29;20045;-76
2022/07/14 06:40:04;;;;;;;3.97;3.45;;;;;;;;;;4860769;29;20060;-77
2022/07/14 06:42:30;;;;;;;5.97;4.55;;;;;;;;;;4860867;29;20487;-77
2022/07/14 06:45:10;;;;;;;6.43;5.07;;;;;;;;;;4846921;29;20052;-76
2022/07/14 06:47:36;;;;;;;7.53;4.68;;;;;;;;;;4845544;29;20055;-76
2022/07/14 06:50:02;;;;;;;8.23;3.92;;;;;;;;;;4877835;29;20053;-76
2022/07/14 06:52:28;;;;;;;13.32;4.30;;;;;;;;;;4877570;29;20079;-75
2022/07/14 06:54:56;;;;;;;7.32;3.38;;;;;;;;;;4878263;29;20064;-77
2022/07/14 06:57:22;;;;;;;9.85;3.60;;;;;;;;;;4879981;29;20053;-76
2022/07/14 06:59:48;;;;;;;4.63;3.72;;;;;;;;;;4880568;29;20060;-75
2022/07/14 07:02:14;;;;;;;3.65;3.15;;;;;;;;;;4878192;29;20056;-77
2022/07/14 07:04:40;;;;;;;9.02;3.58;;;;;;;;;;4876684;29;20049;-77
2022/07/14 07:07:06;;;;;;;9.40;5.40;;;;;;;;;;4879710;29;20049;-78
2022/07/14 07:09:32;;;;;;;5.63;3.17;;;;;;;;;;4882306;29;20048;-77
2022/07/14 07:11:58;;;;;;;11.10;3.72;;;;;;;;;;4872624;29;20156;-78
2022/07/14 07:14:24;;;;;;;6.20;2.95;;;;;;;;;;4887684;29;20051;-76
2022/07/14 07:16:50;;;;;;;4.50;3.10;;;;;;;;;;4878917;29;20056;-78
2022/07/14 07:19:16;;;;;;;8.63;3.20;;;;;;;;;;4861370;29;20037;-76
2022/07/14 07:21:42;;;;;;;4.03;3.15;;;;;;;;;;4845852;29;20135;-78
2022/07/14 07:24:09;;;;;;;6.78;3.20;;;;;;;;;;4877612;29;20041;-77
2022/07/14 07:26:36;;;;;;;6.45;2.90;;;;;;;;;;4877261;29;20053;-76
2022/07/14 07:29:02;;;;;;;3.45;3.25;;;;;;;;;;4878184;29;20049;-77
2022/07/14 07:31:30;;;;;;;5.38;3.40;;;;;;;;;;4867510;29;20088;-75
2022/07/14 07:33:56;;;;;;;7.07;3.10;;;;;;;;;;4877187;29;20041;-77
2022/07/14 07:36:22;;;;;;;6.80;3.30;;;;;;;;;;4876878;29;20052;-77
2022/07/14 07:38:48;;;;;;;3.47;3.08;;;;;;;;;;4876876;29;20409;-77
2022/07/14 07:41:14;;;;;;;3.28;3.08;;;;;;;;;;4876640;29;20487;-77
2022/07/14 07:43:40;;;;;;;6.03;3.20;;;;;;;;;;4875703;29;20041;-77
2022/07/14 07:46:06;;;;;;;14.45;3.15;;;;;;;;;;4877043;29;20057;-76
2022/07/14 07:48:32;;;;;;;3.70;3.40;;;;;;;;;;4859961;29;20406;-76
2022/07/14 07:50:58;;;;;;;5.70;3.05;;;;;;;;;;4876643;29;20545;-75
2022/07/14 07:53:24;;;;;;;6.10;3.20;;;;;;;;;;4859796;29;20037;-76
2022/07/14 07:55:51;;;;;;;3.58;3.30;;;;;;;;;;4876274;29;20457;-77
2022/07/14 07:58:18;;;;;;;3.03;2.83;;;;;;;;;;4876143;29;20041;-76
2022/07/14 08:00:44;;;;;;;3.95;3.13;;;;;;;;;;4876433;29;20053;-76
2022/07/14 08:03:10;;;;;;;4.95;3.22;;;;;;;;;;4876451;29;20041;-76
2022/07/14 08:05:36;;;;;;;5.10;3.03;;;;;;;;;;4874803;29;20063;-76
2022/07/14 08:08:02;;;;;;;3.55;2.83;;;;;;;;;;4876393;29;20037;-77
2022/07/14 08:10:27;;;;;;;4.10;3.20;;;;;;;;;;4875850;29;20474;-77
2022/07/14 08:12:53;;;;;;;4.50;3.22;;;;;;;;;;4876336;29;20426;-76
2022/07/14 08:15:19;;;;;;;6.70;3.00;;;;;;;;;;4859260;29;20529;-77
2022/07/14 08:17:45;;;;;;;5.93;3.10;;;;;;;;;;4876147;29;20064;-78
2022/07/14 08:20:12;;;;;;;3.55;3.25;;;;;;;;;;4875895;29;20048;-76
2022/07/14 08:22:38;;;;;;;6.13;4.25;;;;;;;;;;4858943;29;20049;-78
2022/07/14 08:25:05;;;;;;;5.97;3.33;;;;;;;;;;4875730;29;20052;-76
2022/07/14 08:27:30;;;;;;;4.38;3.28;;;;;;;;;;4875416;29;20047;-75
2022/07/14 08:29:56;;;;;;;9.73;3.78;;;;;;;;;;4858962;29;20136;-77
2022/07/14 08:32:35;;;;;;;9.65;3.28;;;;;;;;;;4859100;29;20049;-76
2022/07/14 08:35:02;;;;;;;8.77;3.50;;;;;;;;;;4875706;29;20045;-77
2022/07/14 08:37:28;;;;;;;5.72;3.20;;;;;;;;;;4875476;29;20138;-77
2022/07/14 08:39:54;;;;;;;11.95;3.28;;;;;;;;;;4875715;29;20143;-77
2022/07/14 08:42:21;;;;;;;4.30;2.92;;;;;;;;;;4875528;29;20080;-75
2022/07/14 08:44:47;;;;;;;4.72;2.67;;;;;;;;;;4874652;29;20112;-77
2022/07/14 08:47:12;;;;;;;5.28;2.92;;;;;;;;;;4875661;29;20194;-77
2022/07/14 08:49:38;;;;;;;4.32;2.85;;;;;;;;;;4858853;29;20076;-76
2022/07/14 08:52:04;;;;;;;4.03;3.25;;;;;;;;;;4875788;29;20064;-77
2022/07/14 08:54:31;;;;;;;5.20;2.80;;;;;;;;;;4875620;29;20104;-75
2022/07/14 08:56:57;;;;;;;3.35;3.05;;;;;;;;;;4859018;29;20430;-77
2022/07/14 08:59:23;;;;;;;4.50;3.15;;;;;;;;;;4875552;29;20113;-76
2022/07/14 09:01:50;;;;;;;3.00;2.65;;;;;;;;;;4876088;29;20045;-77
2022/07/14 09:04:16;;;;;;;4.88;2.83;;;;;;;;;;4875656;29;20045;-77
2022/07/14 09:06:52;;;;;;;11.07;3.05;;;;;;;;;;4876209;29;20037;-77
2022/07/14 09:09:19;;;;;;;3.88;3.50;;;;;;;;;;4862412;29;20140;-77
2022/07/14 09:11:49;;;;;;;3.95;2.90;;;;;;;;;;4879529;29;20149;-77
2022/07/14 09:14:15;;;;;;;7.43;3.20;;;;;;;;;;4879462;29;20044;-76
2022/07/14 09:16:41;;;;;;;5.10;2.80;;;;;;;;;;4879171;29;20052;-76
2022/07/14 09:19:10;;;;;;;4.00;3.03;;;;;;;;;;4862631;29;20536;-76
2022/07/14 09:21:40;;;;;;;4.03;2.90;;;;;;;;;;4878863;29;20108;-76
2022/07/14 09:24:06;;;;;;;2.75;2.55;;;;;;;;;;4887928;29;20044;-74
2022/07/14 09:26:33;;;;;;;3.75;2.78;;;;;;;;;;4877883;29;20104;-77
2022/07/14 09:29:00;;;;;;;3.67;2.58;;;;;;;;;;4879068;29;20224;-76
2022/07/14 09:31:25;;;;;;;4.53;2.67;;;;;;;;;;4862004;29;20065;-77
2022/07/14 09:33:55;;;;;;;3.17;2.88;;;;;;;;;;4878991;29;20569;-77
2022/07/14 09:36:22;;;;;;;6.88;3.10;;;;;;;;;;4861870;29;20056;-77
2022/07/14 09:38:49;;;;;;;4.22;2.90;;;;;;;;;;4878841;29;20060;-77
2022/07/14 09:41:15;;;;;;;5.43;3.22;;;;;;;;;;4862146;29;20068;-77
2022/07/14 09:44:01;;;;;;;11.80;3.55;;;;;;;;;;4861857;29;20398;-77
2022/07/14 09:46:42;;;;;;;3.10;2.90;;;;;;;;;;4878241;29;20315;-76
2022/07/14 09:49:08;;;;;;;8.32;4.60;;;;;;;;;;4878729;29;20041;-76
2022/07/14 09:51:45;;;;;;;4.40;3.45;;;;;;;;;;4878287;29;20067;-77
2022/07/14 09:54:12;;;;;;;10.07;3.00;;;;;;;;;;4877446;29;20045;-77
2022/07/14 09:56:38;;;;;;;3.22;2.88;;;;;;;;;;4861829;29;20055;-79
2022/07/14 09:59:04;;;;;;;4.53;3.05;;;;;;;;;;4879402;29;20073;-77
2022/07/14 10:01:30;;;;;;;8.48;2.90;;;;;;;;;;4878014;29;20474;-77
2022/07/14 10:03:56;;;;;;;3.38;3.10;;;;;;;;;;4878880;29;20041;-78
2022/07/14 10:06:22;;;;;;;2.90;2.70;;;;;;;;;;4861931;29;20059;-77
2022/07/14 10:08:50;;;;;;;6.72;3.42;;;;;;;;;;4879248;29;20128;-77
2022/07/14 10:11:16;;;;;;;4.47;2.97;;;;;;;;;;4890197;29;20119;-77
2022/07/14 10:13:41;;;;;;;5.85;2.63;;;;;;;;;;4888347;29;20052;-77
2022/07/14 10:16:08;;;;;;;13.70;3.15;;;;;;;;;;4879484;29;20083;-77
2022/07/14 10:18:34;;;;;;;3.75;2.63;;;;;;;;;;4859997;29;20045;-77
2022/07/14 10:21:00;;;;;;;5.63;3.15;;;;;;;;;;4876901;29;20053;-77
2022/07/14 10:23:27;;;;;;;10.75;3.85;;;;;;;;;;4845571;29;20033;-78
2022/07/14 10:25:53;;;;;;;6.85;3.55;;;;;;;;;;4861402;29;20054;-76
2022/07/14 10:28:19;;;;;;;5.68;4.15;;;;;;;;;;4877622;29;20052;-78
2022/07/14 10:30:53;;;;;;;6.30;5.10;;;;;;;;;;4877704;29;20056;-77
2022/07/14 10:33:34;;;;;;;8.02;7.20;;;;;;;;;;4876425;29;20045;-75
2022/07/14 10:36:10;;;;;;;8.50;7.18;;;;;;;;;;4876264;29;20056;-76
2022/07/14 10:38:55;;;;;;;6.82;6.22;;;;;;;;;;4860805;29;20139;-75
2022/07/14 10:41:29;;;;;;;6.30;4.28;;;;;;;;;;4845144;29;20150;-76
2022/07/14 10:44:06;;;;;;;4.35;3.42;;;;;;;;;;4877611;29;20044;-76
2022/07/14 10:46:33;;;;;;;3.20;2.90;;;;;;;;;;4877092;29;20049;-77
2022/07/14 10:48:59;;;;;;;4.72;2.90;;;;;;;;;;4877694;29;20041;-77
2022/07/14 10:51:28;;;;;;;3.95;2.75;;;;;;;;;;4877064;29;20053;-77
2022/07/14 10:54:08;;;;;;;5.07;3.20;;;;;;;;;;4860993;29;20037;-77
2022/07/14 10:56:34;;;;;;;4.97;3.20;;;;;;;;;;4877279;29;20132;-77
2022/07/14 10:59:19;;;;;;;1.90;1.80;;;;;;;;;;4877740;29;20561;-75
2022/07/14 11:02:04;;;;;;;6.88;3.13;;;;;;;;;;4860375;29;20476;-73
2022/07/14 11:04:48;;;;;;;5.00;3.35;;;;;;;;;;4876898;29;20128;-73
2022/07/14 11:07:33;;;;;;;3.50;3.30;;;;;;;;;;4860559;29;20071;-75
2022/07/14 11:10:00;;;;;;;5.63;3.90;;;;;;;;;;4860463;29;20162;-75
2022/07/14 11:12:27;;;;;;;4.75;4.20;;;;;;;;;;4876783;29;20061;-75
2022/07/14 11:14:53;;;;;;;4.85;4.47;;;;;;;;;;4862042;29;20492;-75
2022/07/14 11:17:33;;;;;;;4.57;4.18;;;;;;;;;;4860655;29;20170;-74
2022/07/14 11:19:59;;;;;;;4.45;3.70;;;;;;;;;;4877265;29;20037;-76
2022/07/14 11:22:25;;;;;;;6.53;3.88;;;;;;;;;;4876505;29;20064;-76
2022/07/14 11:24:53;;;;;;;5.20;4.80;;;;;;;;;;4860540;29;20045;-76
2022/07/14 11:27:22;;;;;;;6.90;4.70;;;;;;;;;;4877221;29;20068;-75
2022/07/14 11:29:48;;;;;;;8.55;4.85;;;;;;;;;;4860147;29;20041;-76
2022/07/14 11:32:31;;;;;;;4.65;4.05;;;;;;;;;;4875752;29;20053;-76
2022/07/14 11:38:01;;;;;;;5.43;5.00;;;;;;;;;;4876573;29;20048;-75
2022/07/14 11:40:39;;;;;;;5.00;4.70;;;;;;;;;;4876253;29;20049;-75
2022/07/14 11:43:24;;;;;;;4.68;4.35;;;;;;;;;;4876795;29;20085;-74
2022/07/14 11:45:54;;;;;;;6.35;5.85;;;;;;;;;;4876623;29;20199;-74
2022/07/14 11:48:20;;;;;;;6.35;4.40;;;;;;;;;;4876991;29;20045;-74
2022/07/14 11:50:46;;;;;;;4.28;3.72;;;;;;;;;;4876403;29;20117;-74
2022/07/14 11:53:13;;;;;;;4.60;3.22;;;;;;;;;;4876834;29;20044;-74
2022/07/14 11:55:39;;;;;;;5.57;4.95;;;;;;;;;;4859845;29;20127;-75
2022/07/14 11:58:05;;;;;;;4.10;3.53;;;;;;;;;;4876506;29;20068;-73
2022/07/14 12:00:31;;;;;;;4.38;4.07;;;;;;;;;;4877689;29;20048;-75
2022/07/14 12:02:58;;;;;;;4.03;3.83;;;;;;;;;;4876757;29;20048;-74
2022/07/14 12:05:26;;;;;;;4.10;3.80;;;;;;;;;;4876357;29;20510;-75
2022/07/14 12:07:53;;;;;;;3.88;3.67;;;;;;;;;;4859739;29;20052;-75
2022/07/14 12:10:38;;;;;;;3.70;3.40;;;;;;;;;;4876344;29;20084;-76
2022/07/14 12:13:04;;;;;;;5.30;3.28;;;;;;;;;;4876602;29;20514;-77
2022/07/14 12:15:30;;;;;;;4.68;3.22;;;;;;;;;;4876221;29;20041;-76
2022/07/14 12:17:56;;;;;;;3.65;3.42;;;;;;;;;;4876122;29;20057;-77
2022/07/14 12:20:22;;;;;;;4.10;3.72;;;;;;;;;;4859488;29;20052;-76
2022/07/14 12:22:55;;;;;;;4.05;3.83;;;;;;;;;;4859200;29;20125;-75
2022/07/14 12:25:26;;;;;;;4.00;3.80;;;;;;;;;;4876208;29;20040;-75
2022/07/14 12:27:53;;;;;;;4.20;3.90;;;;;;;;;;4859259;29;20112;-76
2022/07/14 12:30:19;;;;;;;4.10;3.80;;;;;;;;;;4876314;29;20049;-79
2022/07/14 12:32:45;;;;;;;4.70;4.30;;;;;;;;;;4875955;29;20144;-76
2022/07/14 12:35:10;;;;;;;4.53;4.22;;;;;;;;;;4876372;29;20136;-77
2022/07/14 12:37:36;;;;;;;5.00;3.80;;;;;;;;;;4874693;29;20049;-77
2022/07/14 12:40:04;;;;;;;6.13;4.30;;;;;;;;;;4876001;29;20132;-77
2022/07/14 12:42:30;;;;;;;3.60;3.38;;;;;;;;;;4861418;29;20053;-80
2022/07/14 12:45:02;;;;;;;4.18;3.80;;;;;;;;;;4881957;29;20052;-79
2022/07/14 12:47:29;;;;;;;3.33;3.10;;;;;;;;;;4865552;29;20080;-79
2022/07/14 12:49:54;;;;;;;3.40;3.20;;;;;;;;;;4879327;29;20486;-79
2022/07/14 12:52:21;;;;;;;4.55;3.53;;;;;;;;;;4863160;29;20045;-78
2022/07/14 12:54:47;;;;;;;4.78;3.50;;;;;;;;;;4862837;29;20430;-81
2022/07/14 12:57:20;;;;;;;3.90;3.63;;;;;;;;;;4878417;29;20110;-79
2022/07/14 12:59:46;;;;;;;6.72;3.42;;;;;;;;;;4862762;29;20056;-78
2022/07/14 13:02:18;;;;;;;3.60;3.35;;;;;;;;;;4879895;29;20057;-79
2022/07/14 13:04:45;;;;;;;4.55;4.20;;;;;;;;;;4862925;29;20044;-78
2022/07/14 13:07:20;;;;;;;5.05;4.65;;;;;;;;;;4884996;29;20081;-78
2022/07/14 13:10:06;;;;;;;5.47;3.90;;;;;;;;;;4887305;29;20139;-77
2022/07/14 13:12:32;;;;;;;9.15;6.65;;;;;;;;;;4886394;29;20057;-77
2022/07/14 13:14:58;;;;;;;9.65;5.97;;;;;;;;;;4891561;29;20062;-77
2022/07/14 13:17:44;;;;;;;4.38;4.07;;;;;;;;;;4886206;29;20055;-76
2022/07/14 13:20:28;;;;;;;3.55;3.35;;;;;;;;;;4880002;29;20522;-78
2022/07/14 13:22:55;;;;;;;3.92;3.45;;;;;;;;;;4862627;29;20049;-77
2022/07/14 13:25:21;;;;;;;4.25;3.67;;;;;;;;;;4879327;29;20045;-77
2022/07/14 13:27:47;;;;;;;4.90;4.07;;;;;;;;;;4878984;29;20064;-79
2022/07/14 13:30:13;;;;;;;3.97;3.58;;;;;;;;;;4879245;29;20474;-77
2022/07/14 13:32:39;;;;;;;4.93;4.10;;;;;;;;;;4878710;29;20055;-77
2022/07/14 13:35:05;;;;;;;4.40;3.97;;;;;;;;;;4877760;29;20136;-77
2022/07/14 13:37:31;;;;;;;6.13;3.50;;;;;;;;;;4878425;29;20052;-78
2022/07/14 13:39:57;;;;;;;5.45;4.03;;;;;;;;;;4878407;29;20053;-77
2022/07/14 13:42:23;;;;;;;4.07;3.67;;;;;;;;;;4878470;29;20128;-77
2022/07/14 13:44:48;;;;;;;4.40;4.00;;;;;;;;;;4878524;29;20049;-77
2022/07/14 13:47:14;;;;;;;4.95;4.50;;;;;;;;;;4878677;29;20065;-77
2022/07/14 13:52:25;;;;;;;4.43;3.63;;;;;;;;;;4878205;29;20068;-76
2022/07/14 13:54:51;;;;;;;5.68;3.83;;;;;;;;;;4861474;29;20421;-77
2022/07/14 13:57:17;;;;;;;4.30;3.85;;;;;;;;;;4878293;29;20124;-78
2022/07/14 13:59:43;;;;;;;3.80;3.50;;;;;;;;;;4861142;29;20057;-76
2022/07/14 14:02:10;;;;;;;3.90;3.70;;;;;;;;;;4878181;29;20045;-76
2022/07/14 14:04:36;;;;;;;5.38;3.58;;;;;;;;;;4845950;29;20327;-76
2022/07/14 14:07:02;;;;;;;4.47;3.70;;;;;;;;;;4877901;29;20143;-76
2022/07/14 14:09:29;;;;;;;6.55;3.53;;;;;;;;;;4878399;29;20211;-76
2022/07/14 14:11:57;;;;;;;4.95;3.30;;;;;;;;;;4876508;29;20124;-77
2022/07/14 14:14:23;;;;;;;3.67;3.13;;;;;;;;;;4877835;29;20069;-77
2022/07/14 14:16:51;;;;;;;3.15;2.83;;;;;;;;;;4877789;29;20107;-75
2022/07/14 14:19:18;;;;;;;5.70;3.22;;;;;;;;;;4877295;29;20064;-76
2022/07/14 14:21:45;;;;;;;3.95;2.83;;;;;;;;;;4877695;29;20538;-76
2022/07/14 14:24:11;;;;;;;3.58;2.90;;;;;;;;;;4876771;29;20607;-76
2022/07/14 14:26:37;;;;;;;2.72;2.63;;;;;;;;;;4845351;29;20048;-76
2022/07/14 14:29:03;;;;;;;9.75;2.78;;;;;;;;;;4845832;29;20546;-77
2022/07/14 14:31:29;;;;;;;3.42;3.13;;;;;;;;;;4877712;29;20064;-78
2022/07/14 14:33:55;;;;;;;3.03;2.70;;;;;;;;;;4861110;29;20076;-77
2022/07/14 14:36:20;;;;;;;4.13;2.72;;;;;;;;;;4877647;29;20103;-76
2022/07/14 14:38:46;;;;;;;3.97;2.70;;;;;;;;;;4877454;29;20037;-76
2022/07/14 14:41:12;;;;;;;4.75;2.45;;;;;;;;;;4861465;29;20514;-77
2022/07/14 14:43:38;;;;;;;2.67;2.42;;;;;;;;;;4877391;29;20045;-77
2022/07/14 14:46:04;;;;;;;4.07;2.60;;;;;;;;;;4860776;29;20633;-78
2022/07/14 14:48:30;;;;;;;2.80;2.55;;;;;;;;;;4877636;29;20033;-77
2022/07/14 14:50:56;;;;;;;3.88;2.53;;;;;;;;;;4877207;29;20075;-76
2022/07/14 14:53:22;;;;;;;2.72;2.53;;;;;;;;;;4877186;29;20033;-77
2022/07/14 14:55:48;;;;;;;4.05;2.80;;;;;;;;;;4877448;29;20516;-76
2022/07/14 14:58:14;;;;;;;4.22;2.80;;;;;;;;;;4880862;29;20664;-76
2022/07/14 15:00:40;;;;;;;3.40;2.38;;;;;;;;;;4878535;29;20557;-74
2022/07/14 15:03:06;;;;;;;5.82;2.45;;;;;;;;;;4860595;29;20048;-76
2022/07/14 15:05:33;;;;;;;4.05;2.65;;;;;;;;;;4859832;29;20053;-75
2022/07/14 15:07:59;;;;;;;3.63;2.67;;;;;;;;;;4876834;29;20060;-78
2022/07/14 15:10:25;;;;;;;3.88;2.97;;;;;;;;;;4876865;29;20053;-76
2022/07/14 15:12:50;;;;;;;2.50;2.40;;;;;;;;;;4875663;29;20072;-76
2022/07/14 15:15:17;;;;;;;6.07;3.03;;;;;;;;;;4875753;29;20530;-76
2022/07/14 15:17:43;;;;;;;4.05;2.80;;;;;;;;;;4876374;29;20506;-77
2022/07/14 15:20:09;;;;;;;3.78;3.13;;;;;;;;;;4876717;29;20060;-76
2022/07/14 15:22:35;;;;;;;3.72;3.42;;;;;;;;;;4876350;29;20041;-76
2022/07/14 15:25:01;;;;;;;5.03;3.38;;;;;;;;;;4876287;29;20422;-75
2022/07/14 15:27:28;;;;;;;3.58;3.10;;;;;;;;;;4860196;29;20072;-75
2022/07/14 15:29:54;;;;;;;8.00;3.42;;;;;;;;;;4876366;29;20451;-76